sensor_id;sensor_type;location;lat;lon;timestamp;pressure;altitude;pressure_sealevel;temperature;humidity
47883;BME280;37739;50.350;7.578;2023-02-16T00:00:05;100761.19;;;1.37;91.62
47883;BME280;37739;50.350;7.578;2023-02-16T00:02:33;100755.84;;;1.34;91.63
47883;BME280;37739;50.350;7.578;2023-02-16T00:05:01;100763.16;;;1.31;92.11
47883;BME280;37739;50.350;7.578;2023-02-16T00:07:29;100760.91;;;1.34;91.24
47883;BME280;37739;50.350;7.578;2023-02-16T00:09:54;100761.25;;;1.28;91.37
47883;BME280;37739;50.350;7.578;2023-02-16T00:12:21;100763.28;;;1.32;91.66
47883;BME280;37739;50.350;7.578;2023-02-16T00:15:17;100760.63;;;1.31;91.50
47883;BME280;37739;50.350;7.578;2023-02-16T00:17:43;100757.50;;;1.33;91.62
47883;BME280;37739;50.350;7.578;2023-02-16T00:20:14;100762.69;;;1.35;92.27
47883;BME280;37739;50.350;7.578;2023-02-16T00:22:39;100762.56;;;1.33;91.59
47883;BME280;37739;50.350;7.578;2023-02-16T00:25:05;100753.25;;;1.24;91.83
47883;BME280;37739;50.350;7.578;2023-02-16T00:27:30;100755.03;;;1.25;91.57
47883;BME280;37739;50.350;7.578;2023-02-16T00:29:55;100759.06;;;1.23;91.83
47883;BME280;37739;50.350;7.578;2023-02-16T00:32:21;100754.88;;;1.23;92.85
47883;BME280;37739;50.350;7.578;2023-02-16T00:34:46;100758.66;;;1.18;91.95
47883;BME280;37739;50.350;7.578;2023-02-16T00:37:12;100758.13;;;1.12;92.56
47883;BME280;37739;50.350;7.578;2023-02-16T00:39:41;100759.72;;;1.11;92.45
47883;BME280;37739;50.350;7.578;2023-02-16T00:42:21;100768.09;;;1.10;92.44
47883;BME280;37739;50.350;7.578;2023-02-16T00:44:51;100761.22;;;1.09;92.05
47883;BME280;37739;50.350;7.578;2023-02-16T00:47:27;100755.31;;;1.09;92.65
47883;BME280;37739;50.350;7.578;2023-02-16T00:49:54;100757.44;;;1.04;93.28
47883;BME280;37739;50.350;7.578;2023-02-16T00:52:36;100751.91;;;1.08;92.74
47883;BME280;37739;50.350;7.578;2023-02-16T00:55:09;100746.56;;;1.05;92.60
47883;BME280;37739;50.350;7.578;2023-02-16T00:57:42;100754.75;;;1.03;92.98
47883;BME280;37739;50.350;7.578;2023-02-16T01:02:34;100744.97;;;0.97;92.83
47883;BME280;37739;50.350;7.578;2023-02-16T01:05:00;100722.97;;;0.96;93.24
47883;BME280;37739;50.350;7.578;2023-02-16T01:07:29;100731.19;;;0.93;93.27
47883;BME280;37739;50.350;7.578;2023-02-16T01:10:17;100730.44;;;0.94;93.63
47883;BME280;37739;50.350;7.578;2023-02-16T01:13:01;100723.31;;;0.90;93.53
47883;BME280;37739;50.350;7.578;2023-02-16T01:15:26;100715.63;;;0.89;93.86
47883;BME280;37739;50.350;7.578;2023-02-16T01:17:51;100718.00;;;0.87;94.46
47883;BME280;37739;50.350;7.578;2023-02-16T01:20:23;100731.13;;;0.83;94.55
47883;BME280;37739;50.350;7.578;2023-02-16T01:22:49;100741.94;;;0.82;94.46
47883;BME280;37739;50.350;7.578;2023-02-16T01:25:14;100752.34;;;0.85;94.61
47883;BME280;37739;50.350;7.578;2023-02-16T01:27:43;100740.44;;;0.84;94.06
47883;BME280;37739;50.350;7.578;2023-02-16T01:32:42;100735.13;;;0.81;93.89
47883;BME280;37739;50.350;7.578;2023-02-16T01:35:21;100729.06;;;0.79;95.06
47883;BME280;37739;50.350;7.578;2023-02-16T01:37:48;100728.28;;;0.80;94.27
47883;BME280;37739;50.350;7.578;2023-02-16T01:43:13;100732.31;;;0.78;94.15
47883;BME280;37739;50.350;7.578;2023-02-16T01:45:45;100731.31;;;0.76;95.13
47883;BME280;37739;50.350;7.578;2023-02-16T01:48:21;100728.78;;;0.76;94.84
47883;BME280;37739;50.350;7.578;2023-02-16T01:51:06;100721.19;;;0.76;95.21
47883;BME280;37739;50.350;7.578;2023-02-16T01:53:40;100708.72;;;0.77;94.74
47883;BME280;37739;50.350;7.578;2023-02-16T01:56:16;100718.66;;;0.76;95.22
47883;BME280;37739;50.350;7.578;2023-02-16T01:58:47;100722.84;;;0.75;95.65
47883;BME280;37739;50.350;7.578;2023-02-16T02:01:31;100715.84;;;0.73;95.41
47883;BME280;37739;50.350;7.578;2023-02-16T02:03:59;100702.34;;;0.72;94.96
47883;BME280;37739;50.350;7.578;2023-02-16T02:06:44;100713.31;;;0.73;96.02
47883;BME280;37739;50.350;7.578;2023-02-16T02:09:15;100716.63;;;0.72;94.86
47883;BME280;37739;50.350;7.578;2023-02-16T02:11:49;100708.28;;;0.73;95.06
47883;BME280;37739;50.350;7.578;2023-02-16T02:14:26;100701.00;;;0.76;95.19
47883;BME280;37739;50.350;7.578;2023-02-16T02:16:56;100715.75;;;0.71;95.02
47883;BME280;37739;50.350;7.578;2023-02-16T02:19:23;100709.63;;;0.69;95.09
47883;BME280;37739;50.350;7.578;2023-02-16T02:28:27;100704.47;;;0.68;95.91
47883;BME280;37739;50.350;7.578;2023-02-16T02:31:08;100699.66;;;0.71;96.12
47883;BME280;37739;50.350;7.578;2023-02-16T02:34:16;100693.13;;;0.73;95.99
47883;BME280;37739;50.350;7.578;2023-02-16T02:36:52;100699.53;;;0.69;96.18
47883;BME280;37739;50.350;7.578;2023-02-16T02:42:19;100704.72;;;0.71;95.92
47883;BME280;37739;50.350;7.578;2023-02-16T02:44:53;100709.78;;;0.71;96.01
47883;BME280;37739;50.350;7.578;2023-02-16T02:47:20;100700.44;;;0.70;96.01
47883;BME280;37739;50.350;7.578;2023-02-16T02:49:53;100700.00;;;0.65;95.93
47883;BME280;37739;50.350;7.578;2023-02-16T02:52:21;100703.69;;;0.69;95.71
47883;BME280;37739;50.350;7.578;2023-02-16T02:54:48;100700.44;;;0.70;95.74
47883;BME280;37739;50.350;7.578;2023-02-16T02:57:44;100698.78;;;0.70;95.70
47883;BME280;37739;50.350;7.578;2023-02-16T03:00:43;100710.69;;;0.71;95.25
47883;BME280;37739;50.350;7.578;2023-02-16T03:03:35;100708.28;;;0.73;96.18
47883;BME280;37739;50.350;7.578;2023-02-16T03:06:12;100698.16;;;0.73;95.91
47883;BME280;37739;50.350;7.578;2023-02-16T03:08:43;100706.66;;;0.73;96.18
47883;BME280;37739;50.350;7.578;2023-02-16T03:11:19;100709.03;;;0.72;96.06
47883;BME280;37739;50.350;7.578;2023-02-16T03:17:00;100704.41;;;0.76;95.32
47883;BME280;37739;50.350;7.578;2023-02-16T03:19:47;100701.81;;;0.85;96.09
47883;BME280;37739;50.350;7.578;2023-02-16T03:22:35;100698.66;;;0.88;95.48
47883;BME280;37739;50.350;7.578;2023-02-16T03:25:25;100692.44;;;0.84;95.23
47883;BME280;37739;50.350;7.578;2023-02-16T03:28:15;100696.91;;;0.87;94.59
47883;BME280;37739;50.350;7.578;2023-02-16T03:31:01;100701.28;;;0.79;95.43
47883;BME280;37739;50.350;7.578;2023-02-16T03:33:30;100696.97;;;0.78;94.85
47883;BME280;37739;50.350;7.578;2023-02-16T03:35:58;100693.56;;;0.77;95.07
47883;BME280;37739;50.350;7.578;2023-02-16T03:38:31;100687.59;;;0.77;94.59
47883;BME280;37739;50.350;7.578;2023-02-16T03:40:56;100686.13;;;0.79;95.58
47883;BME280;37739;50.350;7.578;2023-02-16T03:43:26;100676.03;;;0.79;94.47
47883;BME280;37739;50.350;7.578;2023-02-16T03:45:52;100674.41;;;0.71;95.17
47883;BME280;37739;50.350;7.578;2023-02-16T03:48:17;100671.88;;;0.71;94.50
47883;BME280;37739;50.350;7.578;2023-02-16T03:50:43;100675.03;;;0.68;95.06
47883;BME280;37739;50.350;7.578;2023-02-16T03:53:08;100677.72;;;0.70;95.13
47883;BME280;37739;50.350;7.578;2023-02-16T03:55:36;100671.88;;;0.71;94.96
47883;BME280;37739;50.350;7.578;2023-02-16T03:58:03;100681.13;;;0.70;95.39
47883;BME280;37739;50.350;7.578;2023-02-16T04:00:31;100676.06;;;0.70;94.90
47883;BME280;37739;50.350;7.578;2023-02-16T04:02:59;100678.19;;;0.66;95.45
47883;BME280;37739;50.350;7.578;2023-02-16T04:05:27;100682.31;;;0.65;95.29
47883;BME280;37739;50.350;7.578;2023-02-16T04:07:52;100680.72;;;0.66;95.27
47883;BME280;37739;50.350;7.578;2023-02-16T04:10:20;100682.47;;;0.67;94.87
47883;BME280;37739;50.350;7.578;2023-02-16T04:12:46;100679.06;;;0.66;95.20
47883;BME280;37739;50.350;7.578;2023-02-16T04:15:16;100679.22;;;0.68;95.33
47883;BME280;37739;50.350;7.578;2023-02-16T04:17:45;100681.59;;;0.66;95.17
47883;BME280;37739;50.350;7.578;2023-02-16T04:20:13;100686.66;;;0.66;94.92
47883;BME280;37739;50.350;7.578;2023-02-16T04:22:38;100692.56;;;0.67;94.93
47883;BME280;37739;50.350;7.578;2023-02-16T04:25:06;100683.69;;;0.62;95.21
47883;BME280;37739;50.350;7.578;2023-02-16T04:27:33;100686.22;;;0.62;95.14
47883;BME280;37739;50.350;7.578;2023-02-16T04:30:03;100688.47;;;0.58;94.97
47883;BME280;37739;50.350;7.578;2023-02-16T04:32:29;100685.41;;;0.52;95.56
47883;BME280;37739;50.350;7.578;2023-02-16T04:34:55;100687.16;;;0.53;95.42
47883;BME280;37739;50.350;7.578;2023-02-16T04:37:20;100689.44;;;0.50;95.86
47883;BME280;37739;50.350;7.578;2023-02-16T04:39:47;100686.13;;;0.51;95.85
47883;BME280;37739;50.350;7.578;2023-02-16T04:42:13;100675.63;;;0.47;95.68
47883;BME280;37739;50.350;7.578;2023-02-16T04:44:38;100674.59;;;0.45;95.57
47883;BME280;37739;50.350;7.578;2023-02-16T04:47:04;100675.81;;;0.39;95.82
47883;BME280;37739;50.350;7.578;2023-02-16T04:49:29;100670.28;;;0.44;95.88
47883;BME280;37739;50.350;7.578;2023-02-16T04:51:54;100678.63;;;0.43;95.62
47883;BME280;37739;50.350;7.578;2023-02-16T04:54:20;100682.50;;;0.39;95.35
47883;BME280;37739;50.350;7.578;2023-02-16T04:56:50;100687.97;;;0.44;95.95
47883;BME280;37739;50.350;7.578;2023-02-16T04:59:15;100687.34;;;0.46;95.81
47883;BME280;37739;50.350;7.578;2023-02-16T05:01:41;100691.50;;;0.46;95.85
47883;BME280;37739;50.350;7.578;2023-02-16T05:04:09;100683.22;;;0.47;95.24
47883;BME280;37739;50.350;7.578;2023-02-16T05:06:36;100694.66;;;0.43;95.32
47883;BME280;37739;50.350;7.578;2023-02-16T05:09:05;100685.19;;;0.41;95.56
47883;BME280;37739;50.350;7.578;2023-02-16T05:11:35;100693.88;;;0.44;95.15
47883;BME280;37739;50.350;7.578;2023-02-16T05:14:24;100697.44;;;0.46;95.20
47883;BME280;37739;50.350;7.578;2023-02-16T05:19:35;100677.31;;;0.37;95.21
47883;BME280;37739;50.350;7.578;2023-02-16T05:22:05;100685.22;;;0.32;95.50
47883;BME280;37739;50.350;7.578;2023-02-16T05:24:31;100691.91;;;0.31;95.60
47883;BME280;37739;50.350;7.578;2023-02-16T05:26:59;100695.59;;;0.35;95.86
47883;BME280;37739;50.350;7.578;2023-02-16T05:29:27;100693.19;;;0.36;95.95
47883;BME280;37739;50.350;7.578;2023-02-16T05:31:52;100689.53;;;0.33;95.74
47883;BME280;37739;50.350;7.578;2023-02-16T05:34:20;100686.09;;;0.32;95.42
47883;BME280;37739;50.350;7.578;2023-02-16T05:36:48;100693.09;;;0.26;96.24
47883;BME280;37739;50.350;7.578;2023-02-16T05:39:13;100692.38;;;0.27;95.77
47883;BME280;37739;50.350;7.578;2023-02-16T05:41:38;100706.03;;;0.29;95.56
47883;BME280;37739;50.350;7.578;2023-02-16T05:44:07;100698.56;;;0.31;95.64
47883;BME280;37739;50.350;7.578;2023-02-16T05:46:37;100710.78;;;0.26;95.89
47883;BME280;37739;50.350;7.578;2023-02-16T05:49:04;100700.69;;;0.26;96.24
47883;BME280;37739;50.350;7.578;2023-02-16T05:51:30;100704.69;;;0.24;95.96
47883;BME280;37739;50.350;7.578;2023-02-16T05:53:57;100700.69;;;0.26;96.12
47883;BME280;37739;50.350;7.578;2023-02-16T05:56:23;100703.81;;;0.24;95.98
47883;BME280;37739;50.350;7.578;2023-02-16T05:58:53;100704.28;;;0.19;95.71
47883;BME280;37739;50.350;7.578;2023-02-16T06:01:23;100702.50;;;0.18;95.86
47883;BME280;37739;50.350;7.578;2023-02-16T06:03:48;100711.84;;;0.19;96.23
47883;BME280;37739;50.350;7.578;2023-02-16T06:06:14;100698.94;;;0.16;96.07
47883;BME280;37739;50.350;7.578;2023-02-16T06:08:39;100710.53;;;0.14;96.16
47883;BME280;37739;50.350;7.578;2023-02-16T06:11:09;100698.66;;;0.13;96.36
47883;BME280;37739;50.350;7.578;2023-02-16T06:13:58;100705.31;;;0.22;95.74
47883;BME280;37739;50.350;7.578;2023-02-16T06:16:28;100699.97;;;0.18;96.05
47883;BME280;37739;50.350;7.578;2023-02-16T06:18:54;100698.31;;;0.19;95.70
47883;BME280;37739;50.350;7.578;2023-02-16T06:21:20;100695.84;;;0.10;96.60
47883;BME280;37739;50.350;7.578;2023-02-16T06:23:46;100703.13;;;0.07;96.83
47883;BME280;37739;50.350;7.578;2023-02-16T06:26:11;100698.09;;;0.07;96.75
47883;BME280;37739;50.350;7.578;2023-02-16T06:28:39;100702.25;;;0.07;96.57
47883;BME280;37739;50.350;7.578;2023-02-16T06:31:04;100702.56;;;0.10;96.18
47883;BME280;37739;50.350;7.578;2023-02-16T06:33:29;100702.41;;;0.08;96.36
47883;BME280;37739;50.350;7.578;2023-02-16T06:35:55;100706.53;;;0.08;96.00
47883;BME280;37739;50.350;7.578;2023-02-16T06:38:22;100702.41;;;0.08;96.68
47883;BME280;37739;50.350;7.578;2023-02-16T06:40:51;100699.59;;;0.05;96.86
47883;BME280;37739;50.350;7.578;2023-02-16T06:43:16;100695.41;;;0.06;96.19
47883;BME280;37739;50.350;7.578;2023-02-16T06:45:41;100702.25;;;0.07;96.69
47883;BME280;37739;50.350;7.578;2023-02-16T06:48:07;100697.81;;;0.04;96.92
47883;BME280;37739;50.350;7.578;2023-02-16T06:50:32;100703.91;;;0.06;96.34
47883;BME280;37739;50.350;7.578;2023-02-16T06:52:57;100697.81;;;0.04;96.20
47883;BME280;37739;50.350;7.578;2023-02-16T06:55:25;100706.41;;;0.06;96.75
47883;BME280;37739;50.350;7.578;2023-02-16T06:57:53;100702.41;;;0.08;96.34
47883;BME280;37739;50.350;7.578;2023-02-16T07:00:18;100705.06;;;0.10;95.91
47883;BME280;37739;50.350;7.578;2023-02-16T07:02:46;100701.84;;;0.02;95.83
47883;BME280;37739;50.350;7.578;2023-02-16T07:05:11;100702.56;;;0.01;96.06
47883;BME280;37739;50.350;7.578;2023-02-16T07:07:37;100706.72;;;0.01;95.86
47883;BME280;37739;50.350;7.578;2023-02-16T07:10:04;100707.47;;;-0.01;96.23
47883;BME280;37739;50.350;7.578;2023-02-16T07:12:30;100707.47;;;-0.01;96.17
47883;BME280;37739;50.350;7.578;2023-02-16T07:14:55;100709.97;;;-0.01;96.24
47883;BME280;37739;50.350;7.578;2023-02-16T07:17:20;100711.78;;;-0.08;96.00
47883;BME280;37739;50.350;7.578;2023-02-16T07:19:48;100708.69;;;-0.06;95.91
47883;BME280;37739;50.350;7.578;2023-02-16T07:22:16;100711.94;;;-0.07;96.38
47883;BME280;37739;50.350;7.578;2023-02-16T07:24:41;100705.41;;;-0.05;96.15
47883;BME280;37739;50.350;7.578;2023-02-16T07:27:09;100699.34;;;-0.07;96.18
47883;BME280;37739;50.350;7.578;2023-02-16T07:29:35;100703.66;;;-0.06;96.59
47883;BME280;37739;50.350;7.578;2023-02-16T07:32:01;100699.63;;;-0.04;96.50
47883;BME280;37739;50.350;7.578;2023-02-16T07:34:29;100713.59;;;-0.07;96.61
47883;BME280;37739;50.350;7.578;2023-02-16T07:36:57;100712.09;;;-0.05;96.99
47883;BME280;37739;50.350;7.578;2023-02-16T07:39:22;100713.13;;;-0.03;96.94
47883;BME280;37739;50.350;7.578;2023-02-16T07:41:50;100722.91;;;0.03;96.52
47883;BME280;37739;50.350;7.578;2023-02-16T07:44:20;100731.97;;;0.01;96.30
47883;BME280;37739;50.350;7.578;2023-02-16T07:46:47;100721.88;;;0.01;96.80
47883;BME280;37739;50.350;7.578;2023-02-16T07:49:17;100715.66;;;-0.03;96.70
47883;BME280;37739;50.350;7.578;2023-02-16T07:51:42;100722.03;;;0.02;96.93
47883;BME280;37739;50.350;7.578;2023-02-16T07:54:09;100728.66;;;0.10;96.44
47883;BME280;37739;50.350;7.578;2023-02-16T07:56:36;100737.88;;;0.10;95.72
47883;BME280;37739;50.350;7.578;2023-02-16T07:59:06;100741.53;;;0.13;96.53
47883;BME280;37739;50.350;7.578;2023-02-16T08:01:34;100737.69;;;0.17;95.62
47883;BME280;37739;50.350;7.578;2023-02-16T08:04:02;100736.63;;;0.24;95.96
47883;BME280;37739;50.350;7.578;2023-02-16T08:06:30;100728.44;;;0.26;95.89
47883;BME280;37739;50.350;7.578;2023-02-16T08:08:55;100745.22;;;0.26;96.19
47883;BME280;37739;50.350;7.578;2023-02-16T08:11:23;100745.97;;;0.25;96.02
47883;BME280;37739;50.350;7.578;2023-02-16T08:13:49;100743.72;;;0.28;96.36
47883;BME280;37739;50.350;7.578;2023-02-16T08:16:17;100751.56;;;0.31;96.32
47883;BME280;37739;50.350;7.578;2023-02-16T08:18:46;100750.22;;;0.34;96.44
47883;BME280;37739;50.350;7.578;2023-02-16T08:21:22;100752.25;;;0.47;96.05
47883;BME280;37739;50.350;7.578;2023-02-16T08:23:57;100755.44;;;0.64;96.11
47883;BME280;37739;50.350;7.578;2023-02-16T08:26:25;100749.84;;;0.76;95.88
47883;BME280;37739;50.350;7.578;2023-02-16T08:28:56;100759.16;;;0.86;95.35
47883;BME280;37739;50.350;7.578;2023-02-16T08:31:25;100757.66;;;0.88;95.15
47883;BME280;37739;50.350;7.578;2023-02-16T08:33:54;100757.81;;;0.90;95.05
47883;BME280;37739;50.350;7.578;2023-02-16T08:36:27;100758.28;;;0.86;95.56
47883;BME280;37739;50.350;7.578;2023-02-16T08:38:57;100753.53;;;0.89;95.92
47883;BME280;37739;50.350;7.578;2023-02-16T08:41:27;100746.88;;;1.00;95.51
47883;BME280;37739;50.350;7.578;2023-02-16T08:43:55;100745.03;;;1.07;95.38
47883;BME280;37739;50.350;7.578;2023-02-16T08:46:26;100743.63;;;1.01;94.91
47883;BME280;37739;50.350;7.578;2023-02-16T08:48:56;100738.72;;;1.02;94.40
47883;BME280;37739;50.350;7.578;2023-02-16T08:51:27;100752.63;;;1.07;94.85
47883;BME280;37739;50.350;7.578;2023-02-16T08:53:53;100746.63;;;1.15;94.57
47883;BME280;37739;50.350;7.578;2023-02-16T08:56:20;100751.81;;;1.17;94.60
47883;BME280;37739;50.350;7.578;2023-02-16T08:58:45;100752.50;;;1.25;95.09
47883;BME280;37739;50.350;7.578;2023-02-16T09:01:13;100753.94;;;1.31;94.88
47883;BME280;37739;50.350;7.578;2023-02-16T09:03:44;100753.25;;;1.43;94.63
47883;BME280;37739;50.350;7.578;2023-02-16T09:06:11;100757.97;;;1.48;95.08
47883;BME280;37739;50.350;7.578;2023-02-16T09:08:40;100748.63;;;1.57;94.86
47883;BME280;37739;50.350;7.578;2023-02-16T09:11:12;100744.00;;;1.62;94.61
47883;BME280;37739;50.350;7.578;2023-02-16T09:13:41;100753.00;;;1.69;95.16
47883;BME280;37739;50.350;7.578;2023-02-16T09:16:10;100750.75;;;1.72;95.26
47883;BME280;37739;50.350;7.578;2023-02-16T09:18:36;100733.28;;;1.75;94.64
47883;BME280;37739;50.350;7.578;2023-02-16T09:21:06;100735.34;;;1.79;93.78
47883;BME280;37739;50.350;7.578;2023-02-16T09:23:37;100735.34;;;1.79;94.87
47883;BME280;37739;50.350;7.578;2023-02-16T09:26:04;100735.88;;;1.85;94.33
47883;BME280;37739;50.350;7.578;2023-02-16T09:28:36;100735.28;;;1.98;94.71
47883;BME280;37739;50.350;7.578;2023-02-16T09:31:15;100732.78;;;2.08;94.70
47883;BME280;37739;50.350;7.578;2023-02-16T09:33:42;100742.81;;;2.17;95.40
47883;BME280;37739;50.350;7.578;2023-02-16T09:36:09;100742.72;;;2.26;95.06
47883;BME280;37739;50.350;7.578;2023-02-16T09:38:38;100747.66;;;2.34;94.80
47883;BME280;37739;50.350;7.578;2023-02-16T09:41:18;100752.75;;;2.45;94.44
47883;BME280;37739;50.350;7.578;2023-02-16T09:43:53;100749.84;;;2.50;93.69
47883;BME280;37739;50.350;7.578;2023-02-16T09:46:21;100754.66;;;2.58;94.13
47883;BME280;37739;50.350;7.578;2023-02-16T09:48:50;100746.06;;;2.66;94.04
47883;BME280;37739;50.350;7.578;2023-02-16T09:51:33;100746.94;;;2.77;94.06
47883;BME280;37739;50.350;7.578;2023-02-16T09:54:20;100735.78;;;2.85;93.40
47883;BME280;37739;50.350;7.578;2023-02-16T09:56:56;100725.41;;;2.92;93.25
47883;BME280;37739;50.350;7.578;2023-02-16T09:59:28;100729.88;;;2.94;92.89
47883;BME280;37739;50.350;7.578;2023-02-16T10:04:46;100731.97;;;3.00;92.04
47883;BME280;37739;50.350;7.578;2023-02-16T10:07:32;100734.66;;;3.02;92.61
47883;BME280;37739;50.350;7.578;2023-02-16T10:10:09;100725.78;;;3.07;92.22
47883;BME280;37739;50.350;7.578;2023-02-16T10:12:40;100732.34;;;3.15;91.59
47883;BME280;37739;50.350;7.578;2023-02-16T10:15:15;100737.31;;;3.24;91.88
47883;BME280;37739;50.350;7.578;2023-02-16T10:17:56;100744.22;;;3.37;91.27
47883;BME280;37739;50.350;7.578;2023-02-16T10:20:27;100739.78;;;3.44;91.10
47883;BME280;37739;50.350;7.578;2023-02-16T10:25:56;100718.16;;;3.70;90.68
47883;BME280;37739;50.350;7.578;2023-02-16T10:39:49;100716.50;;;3.92;89.16
47883;BME280;37739;50.350;7.578;2023-02-16T10:44:58;100710.63;;;4.26;88.10
47883;BME280;37739;50.350;7.578;2023-02-16T10:47:36;100715.53;;;4.46;87.32
47883;BME280;37739;50.350;7.578;2023-02-16T10:52:41;100723.19;;;4.80;86.27
47883;BME280;37739;50.350;7.578;2023-02-16T10:55:06;100716.59;;;5.06;85.55
47883;BME280;37739;50.350;7.578;2023-02-16T10:57:33;100711.06;;;5.23;84.30
47883;BME280;37739;50.350;7.578;2023-02-16T11:00:05;100715.19;;;5.45;84.01
47883;BME280;37739;50.350;7.578;2023-02-16T11:02:35;100708.28;;;5.67;83.63
47883;BME280;37739;50.350;7.578;2023-02-16T11:07:58;100701.41;;;6.02;82.02
47883;BME280;37739;50.350;7.578;2023-02-16T11:10:48;100711.72;;;6.28;80.83
47883;BME280;37739;50.350;7.578;2023-02-16T11:15:57;100707.34;;;7.03;79.30
47883;BME280;37739;50.350;7.578;2023-02-16T11:18:31;100705.28;;;6.97;77.24
47883;BME280;37739;50.350;7.578;2023-02-16T11:20:58;100699.56;;;6.88;78.71
47883;BME280;37739;50.350;7.578;2023-02-16T11:23:40;100710.72;;;6.77;79.20
47883;BME280;37739;50.350;7.578;2023-02-16T11:31:37;100705.19;;;6.96;77.55
47883;BME280;37739;50.350;7.578;2023-02-16T11:34:10;100698.75;;;7.27;78.09
47883;BME280;37739;50.350;7.578;2023-02-16T11:36:40;100692.56;;;7.37;77.33
47883;BME280;37739;50.350;7.578;2023-02-16T11:41:48;100685.56;;;7.35;76.85
47883;BME280;37739;50.350;7.578;2023-02-16T11:46:59;100695.28;;;7.40;76.92
47883;BME280;37739;50.350;7.578;2023-02-16T11:49:45;100688.63;;;7.42;76.65
47883;BME280;37739;50.350;7.578;2023-02-16T11:54:53;100680.44;;;7.61;76.91
47883;BME280;37739;50.350;7.578;2023-02-16T11:57:27;100674.06;;;7.68;74.92
47883;BME280;37739;50.350;7.578;2023-02-16T11:59:54;100680.06;;;7.69;75.33
47883;BME280;37739;50.350;7.578;2023-02-16T12:11:30;100670.44;;;7.64;74.79
47883;BME280;37739;50.350;7.578;2023-02-16T12:20:02;100657.94;;;7.69;75.50
47883;BME280;37739;50.350;7.578;2023-02-16T12:43:30;100628.66;;;8.05;74.32
47883;BME280;37739;50.350;7.578;2023-02-16T12:46:08;100625.28;;;8.20;74.83
47883;BME280;37739;50.350;7.578;2023-02-16T12:48:44;100611.38;;;8.30;74.05
47883;BME280;37739;50.350;7.578;2023-02-16T12:51:25;100610.38;;;8.28;74.59
47883;BME280;37739;50.350;7.578;2023-02-16T12:54:23;100611.59;;;8.19;74.69
47883;BME280;37739;50.350;7.578;2023-02-16T12:57:03;100613.97;;;8.16;74.60
47883;BME280;37739;50.350;7.578;2023-02-16T13:02:19;100599.69;;;8.05;74.43
47883;BME280;37739;50.350;7.578;2023-02-16T13:05:13;100590.13;;;8.02;73.92
47883;BME280;37739;50.350;7.578;2023-02-16T13:07:44;100582.09;;;7.96;75.55
47883;BME280;37739;50.350;7.578;2023-02-16T13:10:23;100582.63;;;7.91;75.77
47883;BME280;37739;50.350;7.578;2023-02-16T13:13:02;100592.06;;;7.92;76.11
47883;BME280;37739;50.350;7.578;2023-02-16T13:15:34;100593.03;;;7.94;75.97
47883;BME280;37739;50.350;7.578;2023-02-16T13:18:11;100597.28;;;7.93;76.30
47883;BME280;37739;50.350;7.578;2023-02-16T13:20:47;100606.69;;;7.94;76.08
47883;BME280;37739;50.350;7.578;2023-02-16T13:34:20;100580.50;;;7.83;80.69
47883;BME280;37739;50.350;7.578;2023-02-16T13:39:49;100579.91;;;7.88;80.88
47883;BME280;37739;50.350;7.578;2023-02-16T13:42:32;100579.91;;;7.88;81.49
47883;BME280;37739;50.350;7.578;2023-02-16T13:45:10;100576.44;;;7.87;80.09
47883;BME280;37739;50.350;7.578;2023-02-16T13:47:40;100567.03;;;7.86;79.92
47883;BME280;37739;50.350;7.578;2023-02-16T13:50:35;100571.25;;;7.85;79.92
47883;BME280;37739;50.350;7.578;2023-02-16T13:53:10;100571.16;;;7.84;80.10
47883;BME280;37739;50.350;7.578;2023-02-16T13:55:45;100565.97;;;7.82;79.75
47883;BME280;37739;50.350;7.578;2023-02-16T14:00:38;100552.97;;;7.79;81.05
47883;BME280;37739;50.350;7.578;2023-02-16T14:05:43;100540.06;;;7.76;81.40
47883;BME280;37739;50.350;7.578;2023-02-16T14:13:43;100560.19;;;7.72;81.50
47883;BME280;37739;50.350;7.578;2023-02-16T14:16:29;100551.66;;;7.71;81.59
47883;BME280;37739;50.350;7.578;2023-02-16T14:21:32;100556.84;;;7.73;81.27
47883;BME280;37739;50.350;7.578;2023-02-16T14:24:01;100562.69;;;7.70;81.45
47883;BME280;37739;50.350;7.578;2023-02-16T14:26:33;100556.66;;;7.70;81.59
47883;BME280;37739;50.350;7.578;2023-02-16T14:29:21;100550.78;;;7.71;81.86
47883;BME280;37739;50.350;7.578;2023-02-16T14:32:00;100543.00;;;7.69;82.44
47883;BME280;37739;50.350;7.578;2023-02-16T14:34:53;100544.69;;;7.69;82.07
47883;BME280;37739;50.350;7.578;2023-02-16T14:37:27;100547.25;;;7.69;82.44
47883;BME280;37739;50.350;7.578;2023-02-16T14:40:02;100551.56;;;7.70;82.54
47883;BME280;37739;50.350;7.578;2023-02-16T14:42:33;100547.34;;;7.70;81.87
47883;BME280;37739;50.350;7.578;2023-02-16T14:45:16;100554.19;;;7.71;81.56
47883;BME280;37739;50.350;7.578;2023-02-16T15:01:14;100533.97;;;7.74;81.21
47883;BME280;37739;50.350;7.578;2023-02-16T15:03:45;100529.72;;;7.75;81.21
47883;BME280;37739;50.350;7.578;2023-02-16T15:06:48;100529.94;;;7.78;80.79
47883;BME280;37739;50.350;7.578;2023-02-16T15:11:46;100524.88;;;7.79;80.34
47883;BME280;37739;50.350;7.578;2023-02-16T15:14:36;100511.53;;;7.83;80.14
47883;BME280;37739;50.350;7.578;2023-02-16T15:17:06;100521.81;;;7.85;80.19
47883;BME280;37739;50.350;7.578;2023-02-16T15:19:32;100515.13;;;7.87;80.56
47883;BME280;37739;50.350;7.578;2023-02-16T15:24:52;100519.66;;;7.91;80.49
47883;BME280;37739;50.350;7.578;2023-02-16T15:27:21;100524.16;;;7.95;80.81
47883;BME280;37739;50.350;7.578;2023-02-16T15:30:08;100517.34;;;7.96;80.85
47883;BME280;37739;50.350;7.578;2023-02-16T15:32:55;100517.44;;;7.97;80.62
47883;BME280;37739;50.350;7.578;2023-02-16T15:35:25;100511.47;;;7.97;80.83
47883;BME280;37739;50.350;7.578;2023-02-16T15:38:05;100496.13;;;7.97;80.45
47883;BME280;37739;50.350;7.578;2023-02-16T15:40:30;100489.50;;;8.00;80.99
47883;BME280;37739;50.350;7.578;2023-02-16T15:43:07;100481.94;;;8.02;80.25
47883;BME280;37739;50.350;7.578;2023-02-16T15:45:35;100477.69;;;8.02;80.54
47883;BME280;37739;50.350;7.578;2023-02-16T15:48:21;100470.22;;;8.05;80.34
47883;BME280;37739;50.350;7.578;2023-02-16T15:50:54;100473.03;;;8.10;80.64